Latest Weather Observations for Middle Point

IDD60801

Issued at 5:31 pm CST Tuesday 28 February 2017 (issued every 30 minutes, with the page automatically refreshed every 10 minutes)

About weather observations | Map of weather stations | Latest weather observations for NT | Other Formats
Station Details ID: 014041 Name: MIDDLE POINT Lat: -12.61 Lon: 131.30 Height: 14.1 m
Data from the previous 72 hours. | See also: Recent months at Middle Point
Date/Time
CST
Temp
°C
App
Temp
°C
Dew
Point
°C
Rel
Hum
%
Delta-T
°C
Wind Press
QNH
hPa
Press
MSL
hPa
Rain since
9am
mm
Dir  Spd
km/h
Gust
km/h
Spd
kts
Gust
kts
28/05:30pm 31.3 34.5 24.9 69 4.5 NNE 17 24 9 13 1006.0 1005.9 0.0
28/05:00pm 31.6 35.7 25.2 69 4.5 N 13 17 7 9 1006.1 1006.0 0.0
28/04:30pm 31.8 35.3 24.9 67 4.9 N 15 20 8 11 1005.8 1005.7 0.0
28/04:00pm 32.0 34.7 24.1 63 5.5 NNE 17 20 9 11 1005.8 1005.7 0.0
28/03:30pm 33.0 35.0 23.0 55 6.9 NE 17 24 9 13 1005.9 1005.8 0.0
28/03:00pm 33.3 36.2 22.4 52 7.5 ENE 11 20 6 11 1006.1 1006.0 0.0
28/02:30pm 33.8 36.2 21.6 49 8.3 ENE 11 19 6 10 1006.3 1006.2 0.0
28/02:00pm 33.2 35.8 22.0 51 7.6 NE 11 20 6 11 1006.5 1006.4 0.0
28/01:30pm 32.4 34.8 22.2 55 7.0 NE 13 20 7 11 1006.7 1006.6 0.0
28/01:00pm 33.0 35.7 22.1 52 7.4 NE 11 17 6 9 1007.1 1007.0 0.0
28/12:30pm 32.7 35.9 23.1 57 6.6 NE 11 22 6 12 1007.5 1007.4 0.0
28/12:00pm 33.2 36.0 22.3 52 7.5 E 11 19 6 10 1007.9 1007.8 0.0
28/11:30am 32.6 35.6 22.7 56 6.8 E 11 15 6 8 1008.1 1008.0 0.0
28/11:00am 32.1 35.1 23.3 59 6.1 E 13 20 7 11 1008.4 1008.3 0.0
28/10:30am 31.5 34.9 23.3 61 5.7 ESE 11 17 6 9 1008.7 1008.6 0.0
28/10:00am 31.0 33.8 23.6 64 5.1 ESE 15 22 8 12 1009.0 1008.9 0.0
28/09:30am 30.6 34.2 23.8 67 4.7 ESE 11 17 6 9 1009.2 1009.1 0.0
28/09:00am 29.1 32.7 23.8 73 3.7 SE 11 13 6 7 1009.2 1009.1 0.0
28/08:30am 28.0 32.0 23.8 78 2.9 SSE 9 13 5 7 1009.0 1008.9 0.0
28/08:00am 26.8 31.7 24.6 88 1.5 SSE 7 9 4 5 1008.7 1008.6 0.0
28/07:30am 25.8 30.8 24.8 94 0.7 SSE 7 11 4 6 1008.3 1008.2 0.0
28/07:00am 25.0 29.9 24.7 98 0.2 SSE 7 7 4 4 1008.2 1008.1 0.0
28/06:30am 24.7 29.5 24.2 97 0.3 SSE 6 7 3 4 1008.2 1008.1 0.0
28/06:00am 24.9 30.4 24.0 95 0.6 S 2 4 1 2 1008.1 1008.0 0.0
28/05:30am 25.1 30.8 24.4 96 0.5 W 2 4 1 2 1008.1 1008.0 0.0
28/05:00am 25.0 30.8 24.0 94 0.7 CALM 0 0 0 0 1007.8 1007.7 0.0
28/04:30am 24.8 30.6 23.9 95 0.6 CALM 0 0 0 0 1007.7 1007.6 0.0
28/04:00am 24.8 30.6 23.9 95 0.6 CALM 0 0 0 0 1007.6 1007.5 0.0
28/03:30am 24.7 30.4 23.8 95 0.6 CALM 0 2 0 1 1007.8 1007.7 0.0
28/03:00am 24.7 30.5 24.0 96 0.5 CALM 0 2 0 1 1007.8 1007.7 0.0
28/02:30am 24.8 30.3 24.1 96 0.5 W 2 6 1 3 1007.9 1007.8 0.0
28/02:00am 24.8 29.8 23.9 95 0.6 NNW 4 4 2 2 1008.2 1008.1 0.0
28/01:30am 24.7 29.3 23.8 95 0.6 NW 6 9 3 5 1008.8 1008.7 0.0
28/01:00am 25.1 29.1 23.7 92 1.0 SSW 9 11 5 6 1009.1 1009.0 0.0
28/12:30am 25.3 28.9 23.7 91 1.1 ENE 11 15 6 8 1009.3 1009.2 0.0
28/12:00am 25.3 30.0 23.4 89 1.3 NNE 4 6 2 3 1009.5 1009.4 0.0
 
Date/Time
CST
Temp
°C
App
Temp
°C
Dew
Point
°C
Rel
Hum
%
Delta-T
°C
Wind Press
QNH
hPa
Press
MSL
hPa
Rain since
9am
mm
Dir  Spd
km/h
Gust
km/h
Spd
kts
Gust
kts
27/11:30pm 25.4 30.1 23.3 88 1.4 ENE 4 6 2 3 1010.0 1009.9 0.0
27/11:00pm 25.4 29.9 22.9 86 1.7 N 4 7 2 4 1009.3 1009.2 0.0
27/10:30pm 25.6 29.4 22.7 84 2.0 N 7 11 4 6 1009.3 1009.2 0.0
27/10:00pm 26.3 28.9 22.6 80 2.5 NNE 13 19 7 10 1009.5 1009.4 0.0
27/09:30pm 27.2 30.2 25.2 89 1.4 NE 19 39 10 21 1009.2 1009.1 0.0
27/09:00pm 26.2 30.9 23.9 87 1.6 N 6 9 3 5 1007.6 1007.5 0.0
27/08:30pm 26.5 30.9 23.8 85 1.9 NW 7 7 4 4 1007.3 1007.2 0.0
27/08:00pm 27.5 33.1 24.9 86 1.8 WNW 4 7 2 4 1007.3 1007.2 0.0
27/07:30pm 27.6 31.9 24.2 82 2.4 NNE 9 13 5 7 1006.6 1006.5 0.0
27/07:00pm 28.6 32.9 23.7 75 3.4 NW 7 13 4 7 1006.4 1006.3 0.0
27/06:30pm 29.4 31.8 22.9 68 4.5 NNW 15 20 8 11 1005.9 1005.8 0.0
27/06:00pm 30.8 35.3 24.0 67 4.7 NNW 7 9 4 5 1005.6 1005.5 0.0
27/05:30pm 31.6 35.4 23.4 61 5.7 N 9 11 5 6 1005.7 1005.6 0.0
27/05:00pm 33.1 35.4 22.8 54 7.1 N 15 19 8 10 1005.3 1005.2 0.0
27/04:30pm 32.0 36.3 24.3 63 5.4 N 9 11 5 6 1005.1 1005.0 0.0
27/04:00pm 35.5 37.6 21.0 42 9.8 SE 11 17 6 9 1005.4 1005.3 0.0
27/03:30pm 34.8 37.2 21.5 46 9.1 SE 11 15 6 8 1005.5 1005.4 0.0
27/03:00pm 34.6 37.0 20.9 44 9.3 ESE 9 17 5 9 1005.9 1005.8 0.0
27/02:30pm 34.8 37.6 21.5 46 9.1 ESE 9 19 5 10 1006.4 1006.3 0.0
27/02:00pm 34.3 37.5 22.4 50 8.2 E 9 19 5 10 1006.9 1006.8 0.0
27/01:30pm 34.1 37.4 23.2 53 7.6 SE 11 17 6 9 1007.3 1007.2 0.0
27/01:00pm 33.6 37.4 22.7 53 7.5 ESE 7 17 4 9 1007.6 1007.5 0.0
27/12:30pm 33.1 36.6 22.8 54 7.1 NE 9 15 5 8 1008.1 1008.0 0.0
27/12:00pm 32.9 36.7 22.7 55 7.0 SE 7 13 4 7 1008.5 1008.4 0.0
27/11:30am 31.7 36.5 23.5 62 5.7 NE 4 9 2 5 1008.9 1008.8 0.0
27/11:00am 31.3 36.0 23.9 64 5.1 SE 6 9 3 5 1009.1 1009.0 0.0
27/10:30am 30.7 35.2 23.9 67 4.7 S 7 9 4 5 1009.3 1009.2 0.0
27/10:00am 29.8 34.0 23.5 69 4.3 S 7 11 4 6 1009.5 1009.4 0.0
27/09:30am 29.0 34.1 24.6 77 3.1 SSE 6 9 3 5 1009.6 1009.5 0.0
27/09:00am 27.9 32.8 24.3 81 2.5 SSE 6 7 3 4 1009.8 1009.7 4.4
27/08:30am 26.8 31.7 24.3 86 1.7 SE 6 7 3 4 1009.5 1009.4 4.4
27/08:00am 26.0 30.4 24.4 91 1.1 SSE 9 13 5 7 1009.4 1009.3 4.4
27/07:30am 25.2 30.3 24.7 97 0.3 S 6 9 3 5 1008.9 1008.8 4.4
27/07:00am 24.2 29.6 23.9 98 0.2 S 2 6 1 3 1008.5 1008.4 4.4
27/06:30am 24.3 30.0 23.8 97 0.3 CALM 0 0 0 0 1008.1 1008.0 4.4
27/06:00am 24.4 29.5 24.1 98 0.2 SSE 4 6 2 3 1007.7 1007.6 4.4
27/05:30am 24.5 29.6 24.0 97 0.3 SE 4 4 2 2 1007.5 1007.4 4.4
27/05:00am 24.7 29.2 24.0 96 0.5 S 7 9 4 5 1007.2 1007.1 4.4
27/04:30am 24.8 30.1 24.3 97 0.3 S 4 6 2 3 1007.2 1007.1 4.4
27/04:00am 24.9 29.7 24.4 97 0.3 S 7 11 4 6 1007.3 1007.2 4.4
27/03:30am 25.1 30.0 24.6 97 0.3 S 7 9 4 5 1007.6 1007.5 4.4
27/03:00am 25.0 30.4 24.5 97 0.3 S 4 6 2 3 1008.0 1007.9 4.4
27/02:30am 24.8 29.7 24.3 97 0.3 S 6 7 3 4 1008.5 1008.4 4.4
27/02:00am 24.9 29.8 24.4 97 0.3 SW 6 7 3 4 1008.9 1008.8 4.4
27/01:30am 25.0 30.3 24.3 96 0.5 SSW 4 6 2 3 1009.3 1009.2 4.4
27/01:00am 25.0 29.3 24.3 96 0.5 SW 9 11 5 6 1009.3 1009.2 4.0
27/12:30am 24.8 29.5 23.9 95 0.6 NW 6 9 3 5 1009.4 1009.3 4.0
27/12:00am 25.2 29.5 23.6 91 1.1 N 7 13 4 7 1009.8 1009.7 4.0
 
Date/Time
CST
Temp
°C
App
Temp
°C
Dew
Point
°C
Rel
Hum
%
Delta-T
°C
Wind Press
QNH
hPa
Press
MSL
hPa
Rain since
9am
mm
Dir  Spd
km/h
Gust
km/h
Spd
kts
Gust
kts
26/11:30pm 25.2 29.8 24.7 97 0.3 N 9 13 5 7 1010.0 1009.9 4.0
26/11:00pm 24.9 29.7 24.4 97 0.3 NE 7 15 4 8 1010.5 1010.4 4.0
26/10:30pm 25.1 30.7 24.2 95 0.6 WSW 2 6 1 3 1009.6 1009.5 3.4
26/10:00pm 25.0 30.5 24.1 95 0.6 SSE 2 6 1 3 1009.6 1009.5 3.4
26/09:30pm 24.8 29.8 23.9 95 0.6 NNW 4 6 2 3 1008.8 1008.7 3.2
26/09:00pm 24.7 28.3 23.7 94 0.7 NNW 11 19 6 10 1008.6 1008.5 3.2
26/08:30pm 25.2 28.2 24.0 93 0.8 NNE 15 17 8 9 1008.1 1008.0 3.2
26/08:00pm 26.1 30.9 24.5 91 1.1 N 7 13 4 7 1008.1 1008.0 3.2
26/07:30pm 26.2 30.1 24.2 89 1.4 N 11 15 6 8 1006.7 1006.6 3.2
26/07:00pm 26.8 29.5 23.5 82 2.3 NE 15 20 8 11 1006.2 1006.1 3.2
26/06:30pm 27.8 30.6 23.0 75 3.3 SSE 13 30 7 16 1005.5 1005.4 2.2
26/06:13pm 31.1 33.0 21.3 56 6.6 S 13 39 7 21 1004.5 1004.4 0.0
26/06:00pm 34.2 37.5 21.9 48 8.4 S 7 11 4 6 1004.5 1004.4 0.0
26/05:30pm 34.7 39.1 22.1 48 8.7 W 2 4 1 2 1004.5 1004.4 0.0
26/05:00pm 34.7 37.9 22.4 48 8.5 E 9 15 5 8 1004.6 1004.5 0.0
26/04:30pm 35.4 39.4 22.0 45 9.2 SSE 4 11 2 6 1004.7 1004.6 0.0
26/04:00pm 35.3 39.2 22.6 47 8.8 S 6 7 3 4 1004.8 1004.7 0.0
26/03:30pm 35.1 38.7 22.1 47 8.9 SSW 6 11 3 6 1005.2 1005.1 0.0
26/03:00pm 35.0 38.6 22.0 46 8.9 SSW 6 9 3 5 1005.5 1005.4 0.0
26/02:30pm 34.5 37.7 21.2 46 9.0 S 6 9 3 5 1005.7 1005.6 0.0
26/02:00pm 33.9 37.3 22.0 49 8.1 SSE 7 13 4 7 1005.9 1005.8 0.0
26/01:30pm 34.2 38.3 23.2 52 7.6 SSW 7 13 4 7 1006.3 1006.2 0.0
26/01:00pm 33.3 36.2 22.4 52 7.5 SSW 11 19 6 10 1006.8 1006.7 0.0
26/12:30pm 33.0 36.4 22.7 54 7.1 SW 9 17 5 9 1007.2 1007.1 0.0
26/12:00pm 32.7 36.3 23.1 57 6.6 S 9 17 5 9 1007.6 1007.5 0.0
26/11:30am 32.3 34.8 22.4 56 6.8 SSW 13 17 7 9 1008.1 1008.0 0.0
26/11:00am 31.2 34.4 23.0 61 5.6 S 11 19 6 10 1008.4 1008.3 0.0
26/10:30am 30.1 33.6 22.8 65 5.0 S 9 13 5 7 1008.8 1008.7 0.0
26/10:00am 30.0 33.7 23.9 70 4.2 S 11 15 6 8 1008.9 1008.8 0.0
26/09:30am 28.8 32.5 23.2 71 3.8 S 9 15 5 8 1009.0 1008.9 0.0
26/09:00am 27.7 30.8 23.5 78 2.9 S 13 17 7 9 1008.9 1008.8 0.8
26/08:30am 27.3 31.2 24.2 83 2.1 S 11 15 6 8 1008.9 1008.8 0.8
26/08:00am 26.5 30.4 24.2 87 1.6 S 11 15 6 8 1008.6 1008.5 0.8
26/07:30am 25.9 30.8 24.3 91 1.1 S 6 7 3 4 1008.6 1008.5 0.8
26/07:00am 25.2 30.2 24.5 96 0.5 SSE 6 7 3 4 1008.5 1008.4 0.8
26/06:30am 25.2 30.3 24.9 98 0.2 SE 7 11 4 6 1008.3 1008.2 0.8
26/06:00am 25.0 30.3 24.3 96 0.5 SSE 4 4 2 2 1007.8 1007.7 0.8
26/05:30am 25.3 31.4 24.4 95 0.6 CALM 0 2 0 1 1007.7 1007.6 0.8
26/05:00am 25.5 30.7 24.8 96 0.5 SSE 6 7 3 4 1007.8 1007.7 0.8
26/04:30am 25.9 31.6 25.0 95 0.6 S 4 7 2 4 1008.0 1007.9 0.8
26/04:00am 26.2 31.3 25.5 96 0.5 SSE 9 11 5 6 1008.1 1008.0 0.8
26/03:30am 26.3 31.0 24.9 92 1.0 S 9 11 5 6 1008.2 1008.1 0.6
26/03:00am 26.6 32.8 25.2 92 1.0 SSE 2 7 1 4 1008.7 1008.6 0.0
26/02:30am 26.5 32.4 25.3 93 0.8 SSE 4 6 2 3 1009.0 1008.9 0.0
26/02:00am 26.6 32.0 25.4 93 0.8 SSE 7 9 4 5 1009.2 1009.1 0.0
26/01:30am 26.4 31.8 25.2 93 0.8 SSE 6 7 3 4 1009.2 1009.1 0.0
26/01:00am 26.1 31.9 25.2 95 0.6 ESE 4 6 2 3 1009.2 1009.1 0.0
26/12:30am 25.7 30.9 24.8 95 0.6 ENE 6 11 3 6 1009.4 1009.3 0.0
26/12:00am 25.8 31.4 24.8 94 0.7 W 4 6 2 3 1009.4 1009.3 0.0
 
Date/Time
CST
Temp
°C
App
Temp
°C
Dew
Point
°C
Rel
Hum
%
Delta-T
°C
Wind Press
QNH
hPa
Press
MSL
hPa
Rain since
9am
mm
Dir  Spd
km/h
Gust
km/h
Spd
kts
Gust
kts
25/11:30pm 25.7 30.9 24.8 95 0.6 WNW 6 6 3 3 1009.6 1009.5 0.0
25/11:00pm 26.3 32.6 25.4 95 0.6 W 2 4 1 2 1009.9 1009.8 0.0
25/10:30pm 26.2 32.7 25.0 93 0.8 CALM 0 2 0 1 1009.9 1009.8 0.0
25/10:00pm 26.3 32.3 24.9 92 1.0 WNW 2 4 1 2 1009.8 1009.7 0.0
25/09:30pm 26.8 33.1 25.4 92 1.0 WNW 2 4 1 2 1009.4 1009.3 0.0
25/09:00pm 26.7 32.2 25.3 92 1.0 WNW 6 7 3 4 1009.0 1008.9 0.0
25/08:30pm 27.1 33.0 25.3 90 1.3 WNW 4 4 2 2 1008.7 1008.6 0.0
25/08:00pm 27.7 34.2 25.7 89 1.4 W 2 4 1 2 1008.6 1008.5 0.0
25/07:30pm 27.9 33.5 25.5 87 1.7 W 6 6 3 3 1008.2 1008.1 0.0
25/07:00pm 28.4 33.7 25.0 82 2.4 NW 6 7 3 4 1007.8 1007.7 0.0
25/06:30pm 29.3 34.7 25.1 78 3.0 WNW 6 9 3 5 1007.2 1007.1 0.0
25/06:00pm 29.6 34.2 24.7 75 3.4 WNW 9 15 5 8 1006.9 1006.8 0.0

Other Formats:

Comma delimited format used in spreadsheet applications
http://www.bom.gov.au/fwo/IDD60801/IDD60801.95121.axf

JavaScript Object Notation format (JSON) in row-major order
http://www.bom.gov.au/fwo/IDD60801/IDD60801.95121.json